METAR Data
IDs: Format: Raw Decoded Include TAF

Data at: 2225 UTC 01 Dec 2021

EDJA 012150Z AUTO 24016KT 9999 // BKN018/// BKN024/// OVC200/// 05/02 Q1000